< < Back
Terminal Aerodrome Forecast


Current Version              Previous Versions:   1  2  3  4  5  6  7  8  9  

Terminal Aerodrome Forecast

112
FTUS44 KMRX 010533
TAFTYS
TAF
KTYS 010533Z 0106/0206 VRB05KT P6SM BKN100
     FM010900 VRB04KT P6SM OVC035
     FM011400 VRB05KT P6SM OVC020
     FM012000 VRB05KT P6SM OVC012
     FM020100 22004KT 4SM -SHRA BR OVC007=



Latest METAR

663
SAUS80 KWBC 020700 RRA
MTRTYS
METAR KTYS 020653Z 27007KT 2 1/2SM BR OVC004 07/07 A3029 RMK AO2 RAE0554
SLP258 P0000 T00720067 $


USA.gov is the U.S. government's official web portal to all federal, state and local government web resources and services.